Terminal Aerodrome Forecast
Issued by NWS

Home | Current Version | Previous Version | Text Only | Print | Product List | Glossary On
Versions: 1 2 3 4 5 6 7 8 9 10 11 12 13 14 15 16 17 18
000
FTAK31 PAJN 051120
TAFAWG
TAF
PAWG 051120Z 0512/0612 12005KT P6SM OVC003
     FM051600 35003KT P6SM SCT060
     FM060400 VRB04KT P6SM BKN100
     FM061000 12004KT P6SM SCT003 BKN060 BKN100=

USA.gov is the U.S. government's official web portal to all federal, state and local government web resources and services.